Terminal Aerodrome Forecast
Issued by NWS

Home | Current Version | Previous Version | Text Only | Print | Product List | Glossary On
Versions: 1 2 3 4 5 6 7 8 9 10 11 12 13 14 15 16 17 18 19 20
924
FTUS43 KDLH 231438 AAA
TAFBRD
TAF AMD
KBRD 231438Z 2315/2412 28011G21KT P6SM SKC
     FM231645 30014G25KT P6SM VCSH OVC020
     FM232100 32015G24KT P6SM BKN035
     FM240600 34018G30KT P6SM BKN035=

USA.gov is the U.S. government's official web portal to all federal, state and local government web resources and services.